sensor_id;sensor_type;location;lat;lon;timestamp;pressure;altitude;pressure_sealevel;temperature
23208;BMP180;11773;52.570;13.052;2023-09-07T00:00:28;102157.00;;;24.30
23208;BMP180;11773;52.570;13.052;2023-09-07T00:02:58;102165.00;;;24.20
23208;BMP180;11773;52.570;13.052;2023-09-07T00:05:28;102151.00;;;24.20
23208;BMP180;11773;52.570;13.052;2023-09-07T00:07:58;102157.00;;;24.20
23208;BMP180;11773;52.570;13.052;2023-09-07T00:10:27;102156.00;;;24.20
23208;BMP180;11773;52.570;13.052;2023-09-07T00:12:57;102167.00;;;24.20
23208;BMP180;11773;52.570;13.052;2023-09-07T00:15:26;102165.00;;;24.10
23208;BMP180;11773;52.570;13.052;2023-09-07T00:17:57;102159.00;;;24.10
23208;BMP180;11773;52.570;13.052;2023-09-07T00:20:26;102156.00;;;24.00
23208;BMP180;11773;52.570;13.052;2023-09-07T00:22:56;102159.00;;;24.00
23208;BMP180;11773;52.570;13.052;2023-09-07T00:25:26;102155.00;;;24.00
23208;BMP180;11773;52.570;13.052;2023-09-07T00:27:55;102160.00;;;23.90
23208;BMP180;11773;52.570;13.052;2023-09-07T00:30:25;102152.00;;;23.90
23208;BMP180;11773;52.570;13.052;2023-09-07T00:32:55;102175.00;;;23.90
23208;BMP180;11773;52.570;13.052;2023-09-07T00:35:25;102161.00;;;23.90
23208;BMP180;11773;52.570;13.052;2023-09-07T00:37:54;102166.00;;;23.80
23208;BMP180;11773;52.570;13.052;2023-09-07T00:40:24;102162.00;;;23.80
23208;BMP180;11773;52.570;13.052;2023-09-07T00:42:55;102157.00;;;23.80
23208;BMP180;11773;52.570;13.052;2023-09-07T00:45:24;102168.00;;;23.70
23208;BMP180;11773;52.570;13.052;2023-09-07T00:47:54;102152.00;;;23.70
23208;BMP180;11773;52.570;13.052;2023-09-07T00:50:24;102164.00;;;23.70
23208;BMP180;11773;52.570;13.052;2023-09-07T00:52:54;102157.00;;;23.70
23208;BMP180;11773;52.570;13.052;2023-09-07T00:55:24;102155.00;;;23.60
23208;BMP180;11773;52.570;13.052;2023-09-07T00:57:55;102167.00;;;23.60
23208;BMP180;11773;52.570;13.052;2023-09-07T01:00:24;102153.00;;;23.60
23208;BMP180;11773;52.570;13.052;2023-09-07T01:02:54;102155.00;;;23.50
23208;BMP180;11773;52.570;13.052;2023-09-07T01:05:56;102152.00;;;23.50
23208;BMP180;11773;52.570;13.052;2023-09-07T01:08:26;102154.00;;;23.50
23208;BMP180;11773;52.570;13.052;2023-09-07T01:10:57;102160.00;;;23.40
23208;BMP180;11773;52.570;13.052;2023-09-07T01:13:27;102158.00;;;23.40
23208;BMP180;11773;52.570;13.052;2023-09-07T01:15:56;102147.00;;;23.40
23208;BMP180;11773;52.570;13.052;2023-09-07T01:18:27;102163.00;;;23.30
23208;BMP180;11773;52.570;13.052;2023-09-07T01:20:58;102155.00;;;23.30
23208;BMP180;11773;52.570;13.052;2023-09-07T01:23:27;102156.00;;;23.30
23208;BMP180;11773;52.570;13.052;2023-09-07T01:25:57;102145.00;;;23.20
23208;BMP180;11773;52.570;13.052;2023-09-07T01:28:27;102142.00;;;23.20
23208;BMP180;11773;52.570;13.052;2023-09-07T01:30:58;102148.00;;;23.20
23208;BMP180;11773;52.570;13.052;2023-09-07T01:33:27;102151.00;;;23.20
23208;BMP180;11773;52.570;13.052;2023-09-07T01:35:57;102156.00;;;23.10
23208;BMP180;11773;52.570;13.052;2023-09-07T01:38:27;102149.00;;;23.10
23208;BMP180;11773;52.570;13.052;2023-09-07T01:40:57;102162.00;;;23.10
23208;BMP180;11773;52.570;13.052;2023-09-07T01:43:27;102149.00;;;23.10
23208;BMP180;11773;52.570;13.052;2023-09-07T01:45:56;102156.00;;;23.00
23208;BMP180;11773;52.570;13.052;2023-09-07T01:48:26;102150.00;;;23.00
23208;BMP180;11773;52.570;13.052;2023-09-07T01:50:55;102152.00;;;23.00
23208;BMP180;11773;52.570;13.052;2023-09-07T01:53:25;102153.00;;;23.00
23208;BMP180;11773;52.570;13.052;2023-09-07T01:55:55;102153.00;;;23.00
23208;BMP180;11773;52.570;13.052;2023-09-07T01:58:25;102142.00;;;22.90
23208;BMP180;11773;52.570;13.052;2023-09-07T02:00:59;102145.00;;;22.90
23208;BMP180;11773;52.570;13.052;2023-09-07T02:03:29;102154.00;;;22.90
23208;BMP180;11773;52.570;13.052;2023-09-07T02:05:59;102153.00;;;22.90
23208;BMP180;11773;52.570;13.052;2023-09-07T02:08:28;102140.00;;;22.90
23208;BMP180;11773;52.570;13.052;2023-09-07T02:10:58;102141.00;;;22.90
23208;BMP180;11773;52.570;13.052;2023-09-07T02:13:29;102129.00;;;22.80
23208;BMP180;11773;52.570;13.052;2023-09-07T02:16:02;102145.00;;;22.80
23208;BMP180;11773;52.570;13.052;2023-09-07T02:18:30;102140.00;;;22.80
23208;BMP180;11773;52.570;13.052;2023-09-07T02:21:04;102142.00;;;22.70
23208;BMP180;11773;52.570;13.052;2023-09-07T02:23:34;102149.00;;;22.70
23208;BMP180;11773;52.570;13.052;2023-09-07T02:26:05;102138.00;;;22.70
23208;BMP180;11773;52.570;13.052;2023-09-07T02:28:35;102137.00;;;22.60
23208;BMP180;11773;52.570;13.052;2023-09-07T02:31:06;102138.00;;;22.60
23208;BMP180;11773;52.570;13.052;2023-09-07T02:33:36;102144.00;;;22.60
23208;BMP180;11773;52.570;13.052;2023-09-07T02:36:06;102128.00;;;22.60
23208;BMP180;11773;52.570;13.052;2023-09-07T02:38:35;102136.00;;;22.60
23208;BMP180;11773;52.570;13.052;2023-09-07T02:41:05;102133.00;;;22.50
23208;BMP180;11773;52.570;13.052;2023-09-07T02:43:35;102131.00;;;22.50
23208;BMP180;11773;52.570;13.052;2023-09-07T02:46:04;102143.00;;;22.50
23208;BMP180;11773;52.570;13.052;2023-09-07T02:48:34;102132.00;;;22.50
23208;BMP180;11773;52.570;13.052;2023-09-07T02:51:04;102134.00;;;22.50
23208;BMP180;11773;52.570;13.052;2023-09-07T02:53:33;102148.00;;;22.40
23208;BMP180;11773;52.570;13.052;2023-09-07T02:56:03;102137.00;;;22.40
23208;BMP180;11773;52.570;13.052;2023-09-07T02:58:33;102138.00;;;22.40
23208;BMP180;11773;52.570;13.052;2023-09-07T03:01:08;102145.00;;;22.40
23208;BMP180;11773;52.570;13.052;2023-09-07T03:03:38;102135.00;;;22.40
23208;BMP180;11773;52.570;13.052;2023-09-07T03:06:12;102145.00;;;22.30
23208;BMP180;11773;52.570;13.052;2023-09-07T03:08:42;102143.00;;;22.30
23208;BMP180;11773;52.570;13.052;2023-09-07T03:11:12;102139.00;;;22.30
23208;BMP180;11773;52.570;13.052;2023-09-07T03:13:42;102152.00;;;22.30
23208;BMP180;11773;52.570;13.052;2023-09-07T03:16:11;102139.00;;;22.30
23208;BMP180;11773;52.570;13.052;2023-09-07T03:18:41;102151.00;;;22.30
23208;BMP180;11773;52.570;13.052;2023-09-07T03:21:11;102148.00;;;22.20
23208;BMP180;11773;52.570;13.052;2023-09-07T03:23:41;102140.00;;;22.20
23208;BMP180;11773;52.570;13.052;2023-09-07T03:26:13;102139.00;;;22.20
23208;BMP180;11773;52.570;13.052;2023-09-07T03:28:42;102143.00;;;22.20
23208;BMP180;11773;52.570;13.052;2023-09-07T03:31:12;102156.00;;;22.10
23208;BMP180;11773;52.570;13.052;2023-09-07T03:33:42;102148.00;;;22.10
23208;BMP180;11773;52.570;13.052;2023-09-07T03:36:11;102149.00;;;22.10
23208;BMP180;11773;52.570;13.052;2023-09-07T03:38:43;102137.00;;;22.10
23208;BMP180;11773;52.570;13.052;2023-09-07T03:41:13;102142.00;;;22.10
23208;BMP180;11773;52.570;13.052;2023-09-07T03:43:42;102147.00;;;22.10
23208;BMP180;11773;52.570;13.052;2023-09-07T03:46:12;102150.00;;;22.00
23208;BMP180;11773;52.570;13.052;2023-09-07T03:48:42;102141.00;;;22.00
23208;BMP180;11773;52.570;13.052;2023-09-07T03:51:12;102144.00;;;22.00
23208;BMP180;11773;52.570;13.052;2023-09-07T03:53:41;102139.00;;;21.90
23208;BMP180;11773;52.570;13.052;2023-09-07T03:56:11;102137.00;;;21.90
23208;BMP180;11773;52.570;13.052;2023-09-07T03:58:41;102141.00;;;21.90
23208;BMP180;11773;52.570;13.052;2023-09-07T04:01:10;102140.00;;;21.90
23208;BMP180;11773;52.570;13.052;2023-09-07T04:03:40;102139.00;;;21.90
23208;BMP180;11773;52.570;13.052;2023-09-07T04:06:10;102149.00;;;21.90
23208;BMP180;11773;52.570;13.052;2023-09-07T04:08:40;102146.00;;;21.80
23208;BMP180;11773;52.570;13.052;2023-09-07T04:11:10;102151.00;;;21.80
23208;BMP180;11773;52.570;13.052;2023-09-07T04:13:39;102142.00;;;21.80
23208;BMP180;11773;52.570;13.052;2023-09-07T04:16:10;102165.00;;;21.80
23208;BMP180;11773;52.570;13.052;2023-09-07T04:18:39;102168.00;;;21.80
23208;BMP180;11773;52.570;13.052;2023-09-07T04:21:11;102171.00;;;21.80
23208;BMP180;11773;52.570;13.052;2023-09-07T04:23:41;102165.00;;;21.80
23208;BMP180;11773;52.570;13.052;2023-09-07T04:26:12;102169.00;;;21.80
23208;BMP180;11773;52.570;13.052;2023-09-07T04:28:41;102170.00;;;21.70
23208;BMP180;11773;52.570;13.052;2023-09-07T04:31:11;102164.00;;;21.70
23208;BMP180;11773;52.570;13.052;2023-09-07T04:33:41;102159.00;;;21.70
23208;BMP180;11773;52.570;13.052;2023-09-07T04:36:15;102161.00;;;21.70
23208;BMP180;11773;52.570;13.052;2023-09-07T04:38:44;102171.00;;;21.70
23208;BMP180;11773;52.570;13.052;2023-09-07T04:41:14;102176.00;;;21.70
23208;BMP180;11773;52.570;13.052;2023-09-07T04:43:44;102163.00;;;21.70
23208;BMP180;11773;52.570;13.052;2023-09-07T04:46:15;102172.00;;;21.60
23208;BMP180;11773;52.570;13.052;2023-09-07T04:48:47;102167.00;;;21.60
23208;BMP180;11773;52.570;13.052;2023-09-07T04:51:16;102179.00;;;21.60
23208;BMP180;11773;52.570;13.052;2023-09-07T04:53:46;102170.00;;;21.60
23208;BMP180;11773;52.570;13.052;2023-09-07T04:56:15;102174.00;;;21.60
23208;BMP180;11773;52.570;13.052;2023-09-07T04:58:45;102174.00;;;21.60
23208;BMP180;11773;52.570;13.052;2023-09-07T05:01:15;102173.00;;;21.50
23208;BMP180;11773;52.570;13.052;2023-09-07T05:03:45;102189.00;;;21.50
23208;BMP180;11773;52.570;13.052;2023-09-07T05:06:14;102184.00;;;21.50
23208;BMP180;11773;52.570;13.052;2023-09-07T05:08:45;102190.00;;;21.50
23208;BMP180;11773;52.570;13.052;2023-09-07T05:11:14;102175.00;;;21.50
23208;BMP180;11773;52.570;13.052;2023-09-07T05:13:44;102171.00;;;21.50
23208;BMP180;11773;52.570;13.052;2023-09-07T05:16:13;102184.00;;;21.40
23208;BMP180;11773;52.570;13.052;2023-09-07T05:18:43;102163.00;;;21.40
23208;BMP180;11773;52.570;13.052;2023-09-07T05:21:15;102170.00;;;21.40
23208;BMP180;11773;52.570;13.052;2023-09-07T05:23:46;102170.00;;;21.40
23208;BMP180;11773;52.570;13.052;2023-09-07T05:26:21;102155.00;;;21.40
23208;BMP180;11773;52.570;13.052;2023-09-07T05:28:48;102178.00;;;21.40
23208;BMP180;11773;52.570;13.052;2023-09-07T05:31:17;102175.00;;;21.40
23208;BMP180;11773;52.570;13.052;2023-09-07T05:33:47;102172.00;;;21.40
23208;BMP180;11773;52.570;13.052;2023-09-07T05:36:17;102185.00;;;21.40
23208;BMP180;11773;52.570;13.052;2023-09-07T05:38:47;102180.00;;;21.50
23208;BMP180;11773;52.570;13.052;2023-09-07T05:41:16;102179.00;;;21.50
23208;BMP180;11773;52.570;13.052;2023-09-07T05:43:46;102173.00;;;21.60
23208;BMP180;11773;52.570;13.052;2023-09-07T05:46:17;102177.00;;;21.80
23208;BMP180;11773;52.570;13.052;2023-09-07T05:48:47;102183.00;;;21.90
23208;BMP180;11773;52.570;13.052;2023-09-07T05:51:17;102195.00;;;22.20
23208;BMP180;11773;52.570;13.052;2023-09-07T05:53:47;102187.00;;;22.40
23208;BMP180;11773;52.570;13.052;2023-09-07T05:56:16;102189.00;;;22.60
23208;BMP180;11773;52.570;13.052;2023-09-07T05:58:46;102197.00;;;22.90
23208;BMP180;11773;52.570;13.052;2023-09-07T06:01:15;102207.00;;;23.10
23208;BMP180;11773;52.570;13.052;2023-09-07T06:03:45;102203.00;;;23.40
23208;BMP180;11773;52.570;13.052;2023-09-07T06:06:15;102191.00;;;23.70
23208;BMP180;11773;52.570;13.052;2023-09-07T06:08:44;102190.00;;;24.00
23208;BMP180;11773;52.570;13.052;2023-09-07T06:11:14;102212.00;;;24.20
23208;BMP180;11773;52.570;13.052;2023-09-07T06:13:44;102215.00;;;24.50
23208;BMP180;11773;52.570;13.052;2023-09-07T06:16:15;102211.00;;;24.80
23208;BMP180;11773;52.570;13.052;2023-09-07T06:18:45;102199.00;;;25.00
23208;BMP180;11773;52.570;13.052;2023-09-07T06:21:14;102204.00;;;25.30
23208;BMP180;11773;52.570;13.052;2023-09-07T06:23:44;102214.00;;;25.50
23208;BMP180;11773;52.570;13.052;2023-09-07T06:26:14;102209.00;;;25.80
23208;BMP180;11773;52.570;13.052;2023-09-07T06:28:45;102217.00;;;26.00
23208;BMP180;11773;52.570;13.052;2023-09-07T06:31:15;102223.00;;;26.20
23208;BMP180;11773;52.570;13.052;2023-09-07T06:33:47;102206.00;;;26.40
23208;BMP180;11773;52.570;13.052;2023-09-07T06:36:16;102213.00;;;26.70
23208;BMP180;11773;52.570;13.052;2023-09-07T06:38:47;102218.00;;;26.90
23208;BMP180;11773;52.570;13.052;2023-09-07T06:41:17;102214.00;;;27.10
23208;BMP180;11773;52.570;13.052;2023-09-07T06:43:47;102207.00;;;27.30
23208;BMP180;11773;52.570;13.052;2023-09-07T06:46:16;102222.00;;;27.50
23208;BMP180;11773;52.570;13.052;2023-09-07T06:48:46;102208.00;;;27.70
23208;BMP180;11773;52.570;13.052;2023-09-07T06:51:15;102216.00;;;27.90
23208;BMP180;11773;52.570;13.052;2023-09-07T06:53:45;102215.00;;;28.00
23208;BMP180;11773;52.570;13.052;2023-09-07T06:56:17;102227.00;;;28.20
23208;BMP180;11773;52.570;13.052;2023-09-07T06:58:46;102215.00;;;28.30
23208;BMP180;11773;52.570;13.052;2023-09-07T07:01:16;102234.00;;;28.50
23208;BMP180;11773;52.570;13.052;2023-09-07T07:03:46;102224.00;;;28.60
23208;BMP180;11773;52.570;13.052;2023-09-07T07:06:16;102223.00;;;28.80
23208;BMP180;11773;52.570;13.052;2023-09-07T07:08:46;102225.00;;;28.90
23208;BMP180;11773;52.570;13.052;2023-09-07T07:11:15;102219.00;;;29.00
23208;BMP180;11773;52.570;13.052;2023-09-07T07:13:45;102230.00;;;29.10
23208;BMP180;11773;52.570;13.052;2023-09-07T07:16:15;102229.00;;;29.20
23208;BMP180;11773;52.570;13.052;2023-09-07T07:18:45;102228.00;;;29.30
23208;BMP180;11773;52.570;13.052;2023-09-07T07:21:18;102235.00;;;29.40
23208;BMP180;11773;52.570;13.052;2023-09-07T07:23:47;102231.00;;;29.50
23208;BMP180;11773;52.570;13.052;2023-09-07T07:26:17;102240.00;;;29.60
23208;BMP180;11773;52.570;13.052;2023-09-07T07:28:47;102250.00;;;29.70
23208;BMP180;11773;52.570;13.052;2023-09-07T07:31:19;102237.00;;;29.80
23208;BMP180;11773;52.570;13.052;2023-09-07T07:33:49;102235.00;;;29.90
23208;BMP180;11773;52.570;13.052;2023-09-07T07:36:19;102251.00;;;29.90
23208;BMP180;11773;52.570;13.052;2023-09-07T07:38:49;102244.00;;;30.00
23208;BMP180;11773;52.570;13.052;2023-09-07T07:41:19;102237.00;;;30.00
23208;BMP180;11773;52.570;13.052;2023-09-07T07:43:48;102237.00;;;30.00
23208;BMP180;11773;52.570;13.052;2023-09-07T07:46:18;102246.00;;;30.10
23208;BMP180;11773;52.570;13.052;2023-09-07T07:48:48;102238.00;;;30.00
23208;BMP180;11773;52.570;13.052;2023-09-07T07:51:18;102255.00;;;30.10
23208;BMP180;11773;52.570;13.052;2023-09-07T07:53:47;102236.00;;;30.10
23208;BMP180;11773;52.570;13.052;2023-09-07T07:56:20;102242.00;;;30.10
23208;BMP180;11773;52.570;13.052;2023-09-07T07:58:50;102234.00;;;30.10
23208;BMP180;11773;52.570;13.052;2023-09-07T08:01:20;102229.00;;;30.10
23208;BMP180;11773;52.570;13.052;2023-09-07T08:03:50;102240.00;;;30.10
23208;BMP180;11773;52.570;13.052;2023-09-07T08:06:20;102235.00;;;30.10
23208;BMP180;11773;52.570;13.052;2023-09-07T08:08:49;102229.00;;;30.10
23208;BMP180;11773;52.570;13.052;2023-09-07T08:11:19;102249.00;;;30.00
23208;BMP180;11773;52.570;13.052;2023-09-07T08:13:50;102245.00;;;30.00
23208;BMP180;11773;52.570;13.052;2023-09-07T08:16:19;102243.00;;;30.10
23208;BMP180;11773;52.570;13.052;2023-09-07T08:18:49;102232.00;;;30.00
23208;BMP180;11773;52.570;13.052;2023-09-07T08:21:19;102235.00;;;30.00
23208;BMP180;11773;52.570;13.052;2023-09-07T08:23:48;102236.00;;;30.00
23208;BMP180;11773;52.570;13.052;2023-09-07T08:26:18;102240.00;;;30.00
23208;BMP180;11773;52.570;13.052;2023-09-07T08:28:48;102242.00;;;30.00
23208;BMP180;11773;52.570;13.052;2023-09-07T08:31:18;102237.00;;;30.10
23208;BMP180;11773;52.570;13.052;2023-09-07T08:33:50;102236.00;;;30.10
23208;BMP180;11773;52.570;13.052;2023-09-07T08:36:20;102238.00;;;30.10
23208;BMP180;11773;52.570;13.052;2023-09-07T08:38:52;102231.00;;;30.10
23208;BMP180;11773;52.570;13.052;2023-09-07T08:41:25;102235.00;;;30.20
23208;BMP180;11773;52.570;13.052;2023-09-07T08:43:57;102235.00;;;30.20
23208;BMP180;11773;52.570;13.052;2023-09-07T08:46:28;102228.00;;;30.20
23208;BMP180;11773;52.570;13.052;2023-09-07T08:49:00;102232.00;;;30.30
23208;BMP180;11773;52.570;13.052;2023-09-07T08:51:31;102231.00;;;30.30
23208;BMP180;11773;52.570;13.052;2023-09-07T08:54:01;102230.00;;;30.30
23208;BMP180;11773;52.570;13.052;2023-09-07T08:56:32;102235.00;;;30.30
23208;BMP180;11773;52.570;13.052;2023-09-07T08:59:02;102240.00;;;30.30
23208;BMP180;11773;52.570;13.052;2023-09-07T09:01:34;102245.00;;;30.30
23208;BMP180;11773;52.570;13.052;2023-09-07T09:04:06;102230.00;;;30.40
23208;BMP180;11773;52.570;13.052;2023-09-07T09:06:37;102229.00;;;30.40
23208;BMP180;11773;52.570;13.052;2023-09-07T09:09:07;102231.00;;;30.40
23208;BMP180;11773;52.570;13.052;2023-09-07T09:11:36;102240.00;;;30.50
23208;BMP180;11773;52.570;13.052;2023-09-07T09:14:06;102235.00;;;30.50
23208;BMP180;11773;52.570;13.052;2023-09-07T09:16:36;102238.00;;;30.50
23208;BMP180;11773;52.570;13.052;2023-09-07T09:19:05;102239.00;;;30.60
23208;BMP180;11773;52.570;13.052;2023-09-07T09:21:36;102239.00;;;30.60
23208;BMP180;11773;52.570;13.052;2023-09-07T09:24:09;102231.00;;;30.70
23208;BMP180;11773;52.570;13.052;2023-09-07T09:26:39;102236.00;;;30.70
23208;BMP180;11773;52.570;13.052;2023-09-07T09:29:10;102243.00;;;30.70
23208;BMP180;11773;52.570;13.052;2023-09-07T09:31:40;102239.00;;;30.80
23208;BMP180;11773;52.570;13.052;2023-09-07T09:34:11;102248.00;;;30.80
23208;BMP180;11773;52.570;13.052;2023-09-07T09:36:42;102226.00;;;30.80
23208;BMP180;11773;52.570;13.052;2023-09-07T09:39:24;102213.00;;;30.90
23208;BMP180;11773;52.570;13.052;2023-09-07T09:41:54;102215.00;;;30.90
23208;BMP180;11773;52.570;13.052;2023-09-07T09:44:24;102205.00;;;30.90
23208;BMP180;11773;52.570;13.052;2023-09-07T09:46:54;102208.00;;;31.00
23208;BMP180;11773;52.570;13.052;2023-09-07T09:49:26;102206.00;;;31.00
23208;BMP180;11773;52.570;13.052;2023-09-07T09:51:57;102212.00;;;31.10
23208;BMP180;11773;52.570;13.052;2023-09-07T09:54:28;102210.00;;;31.10
23208;BMP180;11773;52.570;13.052;2023-09-07T09:56:58;102204.00;;;31.20
23208;BMP180;11773;52.570;13.052;2023-09-07T09:59:28;102206.00;;;31.20
23208;BMP180;11773;52.570;13.052;2023-09-07T10:01:58;102207.00;;;31.30
23208;BMP180;11773;52.570;13.052;2023-09-07T10:04:29;102212.00;;;31.40
23208;BMP180;11773;52.570;13.052;2023-09-07T10:07:00;102198.00;;;31.40
23208;BMP180;11773;52.570;13.052;2023-09-07T10:09:34;102200.00;;;31.40
23208;BMP180;11773;52.570;13.052;2023-09-07T10:12:11;102199.00;;;31.50
23208;BMP180;11773;52.570;13.052;2023-09-07T10:14:42;102202.00;;;31.50
23208;BMP180;11773;52.570;13.052;2023-09-07T10:17:23;102201.00;;;31.60
23208;BMP180;11773;52.570;13.052;2023-09-07T10:20:04;102210.00;;;31.60
23208;BMP180;11773;52.570;13.052;2023-09-07T10:22:37;102207.00;;;31.70
23208;BMP180;11773;52.570;13.052;2023-09-07T10:25:17;102202.00;;;31.70
23208;BMP180;11773;52.570;13.052;2023-09-07T10:27:39;102209.00;;;31.70
23208;BMP180;11773;52.570;13.052;2023-09-07T10:30:13;102193.00;;;31.80
23208;BMP180;11773;52.570;13.052;2023-09-07T10:32:44;102203.00;;;31.80
23208;BMP180;11773;52.570;13.052;2023-09-07T10:35:19;102203.00;;;31.80
23208;BMP180;11773;52.570;13.052;2023-09-07T10:37:53;102203.00;;;31.90
23208;BMP180;11773;52.570;13.052;2023-09-07T10:40:23;102204.00;;;31.90
23208;BMP180;11773;52.570;13.052;2023-09-07T10:43:03;102191.00;;;31.90
23208;BMP180;11773;52.570;13.052;2023-09-07T10:45:33;102193.00;;;32.00
23208;BMP180;11773;52.570;13.052;2023-09-07T10:48:03;102193.00;;;32.00
23208;BMP180;11773;52.570;13.052;2023-09-07T10:50:48;102202.00;;;32.00
23208;BMP180;11773;52.570;13.052;2023-09-07T10:53:31;102197.00;;;32.00
23208;BMP180;11773;52.570;13.052;2023-09-07T10:56:05;102201.00;;;32.00
23208;BMP180;11773;52.570;13.052;2023-09-07T10:58:37;102189.00;;;32.00
23208;BMP180;11773;52.570;13.052;2023-09-07T11:01:12;102201.00;;;32.10
23208;BMP180;11773;52.570;13.052;2023-09-07T11:03:43;102193.00;;;32.10
23208;BMP180;11773;52.570;13.052;2023-09-07T11:06:17;102185.00;;;32.10
23208;BMP180;11773;52.570;13.052;2023-09-07T11:08:47;102199.00;;;32.20
23208;BMP180;11773;52.570;13.052;2023-09-07T11:11:17;102170.00;;;32.20
23208;BMP180;11773;52.570;13.052;2023-09-07T11:13:47;102193.00;;;32.20
23208;BMP180;11773;52.570;13.052;2023-09-07T11:16:18;102180.00;;;32.20
23208;BMP180;11773;52.570;13.052;2023-09-07T11:18:50;102180.00;;;32.20
23208;BMP180;11773;52.570;13.052;2023-09-07T11:21:20;102189.00;;;32.30
23208;BMP180;11773;52.570;13.052;2023-09-07T11:23:52;102177.00;;;32.30
23208;BMP180;11773;52.570;13.052;2023-09-07T11:26:21;102160.00;;;32.30
23208;BMP180;11773;52.570;13.052;2023-09-07T11:28:51;102176.00;;;32.40
23208;BMP180;11773;52.570;13.052;2023-09-07T11:31:21;102182.00;;;32.40
23208;BMP180;11773;52.570;13.052;2023-09-07T11:33:51;102167.00;;;32.40
23208;BMP180;11773;52.570;13.052;2023-09-07T11:36:20;102173.00;;;32.50
23208;BMP180;11773;52.570;13.052;2023-09-07T11:38:52;102157.00;;;32.50
23208;BMP180;11773;52.570;13.052;2023-09-07T11:41:21;102171.00;;;32.50
23208;BMP180;11773;52.570;13.052;2023-09-07T11:43:51;102168.00;;;32.50
23208;BMP180;11773;52.570;13.052;2023-09-07T11:46:21;102173.00;;;32.50
23208;BMP180;11773;52.570;13.052;2023-09-07T11:48:51;102179.00;;;32.60
23208;BMP180;11773;52.570;13.052;2023-09-07T11:51:21;102162.00;;;32.60
23208;BMP180;11773;52.570;13.052;2023-09-07T11:53:50;102169.00;;;32.60
23208;BMP180;11773;52.570;13.052;2023-09-07T11:56:20;102159.00;;;32.60
23208;BMP180;11773;52.570;13.052;2023-09-07T11:58:50;102159.00;;;32.70
23208;BMP180;11773;52.570;13.052;2023-09-07T12:01:19;102155.00;;;32.70
23208;BMP180;11773;52.570;13.052;2023-09-07T12:03:49;102163.00;;;32.70
23208;BMP180;11773;52.570;13.052;2023-09-07T12:06:19;102156.00;;;32.70
23208;BMP180;11773;52.570;13.052;2023-09-07T12:09:06;102158.00;;;32.80
23208;BMP180;11773;52.570;13.052;2023-09-07T12:11:37;102155.00;;;32.80
23208;BMP180;11773;52.570;13.052;2023-09-07T12:14:07;102150.00;;;32.80
23208;BMP180;11773;52.570;13.052;2023-09-07T12:16:37;102155.00;;;32.80
23208;BMP180;11773;52.570;13.052;2023-09-07T12:19:06;102151.00;;;32.80
23208;BMP180;11773;52.570;13.052;2023-09-07T12:21:37;102160.00;;;32.90
23208;BMP180;11773;52.570;13.052;2023-09-07T12:24:07;102163.00;;;32.90
23208;BMP180;11773;52.570;13.052;2023-09-07T12:26:36;102163.00;;;32.90
23208;BMP180;11773;52.570;13.052;2023-09-07T12:29:06;102158.00;;;32.90
23208;BMP180;11773;52.570;13.052;2023-09-07T12:31:36;102149.00;;;33.00
23208;BMP180;11773;52.570;13.052;2023-09-07T12:34:06;102143.00;;;33.00
23208;BMP180;11773;52.570;13.052;2023-09-07T12:36:36;102136.00;;;33.00
23208;BMP180;11773;52.570;13.052;2023-09-07T12:39:06;102152.00;;;33.00
23208;BMP180;11773;52.570;13.052;2023-09-07T12:41:36;102141.00;;;33.00
23208;BMP180;11773;52.570;13.052;2023-09-07T12:44:05;102145.00;;;33.10
23208;BMP180;11773;52.570;13.052;2023-09-07T12:46:35;102149.00;;;33.00
23208;BMP180;11773;52.570;13.052;2023-09-07T12:49:05;102157.00;;;33.00
23208;BMP180;11773;52.570;13.052;2023-09-07T12:51:35;102138.00;;;33.00
23208;BMP180;11773;52.570;13.052;2023-09-07T12:54:04;102135.00;;;33.00
23208;BMP180;11773;52.570;13.052;2023-09-07T12:56:35;102146.00;;;33.00
23208;BMP180;11773;52.570;13.052;2023-09-07T12:59:04;102142.00;;;33.00
23208;BMP180;11773;52.570;13.052;2023-09-07T13:01:34;102131.00;;;33.00
23208;BMP180;11773;52.570;13.052;2023-09-07T13:04:04;102128.00;;;33.00
23208;BMP180;11773;52.570;13.052;2023-09-07T13:06:33;102126.00;;;33.00
23208;BMP180;11773;52.570;13.052;2023-09-07T13:09:03;102125.00;;;33.00
23208;BMP180;11773;52.570;13.052;2023-09-07T13:11:33;102128.00;;;33.00
23208;BMP180;11773;52.570;13.052;2023-09-07T13:14:03;102120.00;;;33.10
23208;BMP180;11773;52.570;13.052;2023-09-07T13:16:34;102129.00;;;33.10
23208;BMP180;11773;52.570;13.052;2023-09-07T13:19:04;102125.00;;;33.10
23208;BMP180;11773;52.570;13.052;2023-09-07T13:21:34;102115.00;;;33.00
23208;BMP180;11773;52.570;13.052;2023-09-07T13:24:04;102121.00;;;33.00
23208;BMP180;11773;52.570;13.052;2023-09-07T13:26:34;102104.00;;;33.00
23208;BMP180;11773;52.570;13.052;2023-09-07T13:29:04;102113.00;;;33.00
23208;BMP180;11773;52.570;13.052;2023-09-07T13:31:33;102108.00;;;33.00
23208;BMP180;11773;52.570;13.052;2023-09-07T13:34:03;102101.00;;;33.00
23208;BMP180;11773;52.570;13.052;2023-09-07T13:36:33;102101.00;;;33.00
23208;BMP180;11773;52.570;13.052;2023-09-07T13:39:02;102112.00;;;33.00
23208;BMP180;11773;52.570;13.052;2023-09-07T13:41:32;102103.00;;;33.00
23208;BMP180;11773;52.570;13.052;2023-09-07T13:44:02;102102.00;;;33.00
23208;BMP180;11773;52.570;13.052;2023-09-07T13:46:32;102102.00;;;33.00
23208;BMP180;11773;52.570;13.052;2023-09-07T13:49:02;102103.00;;;33.00
23208;BMP180;11773;52.570;13.052;2023-09-07T13:51:32;102099.00;;;33.00
23208;BMP180;11773;52.570;13.052;2023-09-07T13:54:09;102100.00;;;33.00
23208;BMP180;11773;52.570;13.052;2023-09-07T13:56:34;102100.00;;;33.00
23208;BMP180;11773;52.570;13.052;2023-09-07T13:59:06;102098.00;;;33.00
23208;BMP180;11773;52.570;13.052;2023-09-07T14:01:35;102086.00;;;33.00